Time;durP1;ratioP1;P1;durP2;ratioP2;P2;SDS_P1;SDS_P2;PMS_P1;PMS_P2;Temp;Humidity;BMP_temperature;BMP_pressure;BME280_temperature;BME280_humidity;BME280_pressure;Samples;Min_cycle;Max_cycle;Signal;HPM_P1;HPM_P2
2024/01/23 00:00:41;;;;;;;14.40;2.90;;;5.60;99.90;;;;;;6308031;22;20442;-34
2024/01/23 00:03:07;;;;;;;11.50;2.63;;;5.60;99.90;;;;;;6280831;22;20080;-35
2024/01/23 00:05:32;;;;;;;16.77;3.03;;;5.60;99.90;;;;;;6255610;22;20015;-35
2024/01/23 00:07:58;;;;;;;9.95;1.83;;;5.40;99.90;;;;;;6308716;22;20109;-34
2024/01/23 00:10:24;;;;;;;12.10;2.33;;;5.40;99.90;;;;;;6308678;22;20463;-35
2024/01/23 00:12:49;;;;;;;17.20;2.65;;;5.40;99.90;;;;;;6280821;22;20096;-34
2024/01/23 00:15:15;;;;;;;10.18;1.63;;;5.40;99.90;;;;;;6280835;22;20022;-34
2024/01/23 00:17:41;;;;;;;14.48;3.00;;;5.40;99.90;;;;;;6280788;22;20015;-34
2024/01/23 00:20:07;;;;;;;18.02;3.30;;;5.30;99.90;;;;;;6280712;22;20083;-35
2024/01/23 00:22:33;;;;;;;15.55;3.20;;;5.30;99.90;;;;;;6308608;22;20019;-35
2024/01/23 00:24:59;;;;;;;14.25;3.22;;;5.40;99.90;;;;;;6257337;22;20485;-37
2024/01/23 00:27:25;;;;;;;12.82;3.33;;;5.40;99.90;;;;;;6310097;22;20103;-34
2024/01/23 00:29:51;;;;;;;22.38;3.47;;;5.50;99.90;;;;;;6257115;22;20011;-38
2024/01/23 00:32:17;;;;;;;15.77;2.78;;;5.70;99.90;;;;;;6311055;22;20086;-35
2024/01/23 00:34:43;;;;;;;12.85;2.92;;;5.80;99.90;;;;;;6309952;22;20015;-34
2024/01/23 00:37:09;;;;;;;16.10;3.60;;;5.60;99.90;;;;;;6309996;22;20026;-35
2024/01/23 00:39:38;;;;;;;7.32;1.88;;;5.50;99.90;;;;;;6309860;22;20042;-35
2024/01/23 00:42:06;;;;;;;13.05;3.33;;;5.60;99.90;;;;;;6310052;22;20094;-35
2024/01/23 00:44:32;;;;;;;13.43;3.08;;;5.50;99.90;;;;;;6309845;22;20016;-35
2024/01/23 00:46:58;;;;;;;11.32;2.35;;;5.50;99.90;;;;;;6309863;22;20022;-35
2024/01/23 00:49:24;;;;;;;8.15;2.00;;;5.50;99.90;;;;;;6283311;22;20007;-34
2024/01/23 00:51:49;;;;;;;14.20;2.03;;;5.60;99.90;;;;;;6282445;22;20067;-35
2024/01/23 00:54:15;;;;;;;17.40;3.40;;;5.50;99.90;;;;;;6256958;22;20019;-35
2024/01/23 00:56:44;;;;;;;10.23;3.05;;;5.60;99.90;;;;;;6310602;22;20065;-35
2024/01/23 00:59:12;;;;;;;18.40;3.70;;;5.60;99.90;;;;;;6282383;22;20015;-35
2024/01/23 01:01:38;;;;;;;15.25;2.70;;;5.80;99.90;;;;;;6310017;22;20019;-34
2024/01/23 01:04:04;;;;;;;15.40;3.20;;;5.60;99.90;;;;;;6309688;22;20550;-35
2024/01/23 01:06:30;;;;;;;19.90;2.42;;;5.50;99.90;;;;;;6309318;22;20060;-35
2024/01/23 01:08:56;;;;;;;21.70;3.92;;;5.50;99.90;;;;;;6282459;22;20026;-35
2024/01/23 01:11:22;;;;;;;17.98;3.65;;;5.40;99.90;;;;;;6257977;22;20015;-37
2024/01/23 01:13:48;;;;;;;16.17;3.20;;;5.50;99.90;;;;;;6309644;22;20026;-35
2024/01/23 01:16:14;;;;;;;12.52;3.25;;;5.50;99.90;;;;;;6309573;22;20023;-36
2024/01/23 01:18:40;;;;;;;13.35;2.80;;;5.40;99.90;;;;;;6256722;22;20041;-34
2024/01/23 01:21:07;;;;;;;24.17;3.58;;;5.30;99.90;;;;;;6282200;22;20018;-34
2024/01/23 01:23:34;;;;;;;12.57;3.75;;;5.20;99.90;;;;;;6257072;22;20025;-36
2024/01/23 01:26:01;;;;;;;14.73;2.55;;;5.30;99.90;;;;;;6282450;22;20015;-35
2024/01/23 01:28:27;;;;;;;21.33;3.22;;;5.20;99.90;;;;;;6256718;22;20022;-36
2024/01/23 01:30:53;;;;;;;10.35;2.78;;;5.10;99.90;;;;;;6310476;22;20076;-36
2024/01/23 01:33:19;;;;;;;18.10;3.03;;;5.30;99.90;;;;;;6282203;22;20027;-34
2024/01/23 01:35:45;;;;;;;13.38;2.95;;;5.30;99.90;;;;;;6309071;22;20058;-34
2024/01/23 01:38:11;;;;;;;14.48;2.47;;;5.00;99.90;;;;;;6282140;22;20019;-36
2024/01/23 01:40:36;;;;;;;19.88;3.47;;;5.10;99.90;;;;;;6256463;22;20026;-34
2024/01/23 01:43:02;;;;;;;17.58;2.50;;;5.20;99.90;;;;;;6309301;22;20094;-35
2024/01/23 01:45:28;;;;;;;21.80;3.70;;;5.20;99.90;;;;;;6310009;22;20047;-37
2024/01/23 01:47:55;;;;;;;14.60;3.00;;;5.10;99.90;;;;;;6281815;22;20069;-34
2024/01/23 01:50:20;;;;;;;18.25;3.50;;;5.00;99.90;;;;;;6309590;22;20090;-34
2024/01/23 01:52:46;;;;;;;19.98;4.03;;;4.90;99.90;;;;;;6230916;22;20020;-35
2024/01/23 01:55:12;;;;;;;19.38;4.00;;;4.90;99.90;;;;;;6256737;22;20022;-35
2024/01/23 01:57:42;;;;;;;24.98;3.17;;;5.00;99.90;;;;;;6309470;22;20038;-36
2024/01/23 02:00:08;;;;;;;22.88;3.45;;;4.80;99.90;;;;;;6282024;22;20019;-37
2024/01/23 02:02:40;;;;;;;15.35;3.17;;;4.80;99.90;;;;;;6309918;22;20016;-38
2024/01/23 02:05:05;;;;;;;31.90;4.20;;;4.90;99.90;;;;;;6309150;22;20023;-36
2024/01/23 02:07:33;;;;;;;15.35;3.08;;;4.90;99.90;;;;;;6281780;22;20015;-36
2024/01/23 02:09:59;;;;;;;15.68;3.33;;;4.70;99.90;;;;;;6309065;22;20015;-36
2024/01/23 02:12:24;;;;;;;15.60;3.33;;;4.80;99.90;;;;;;6281710;22;20015;-36
2024/01/23 02:14:50;;;;;;;11.30;3.00;;;4.80;99.90;;;;;;6281765;22;20022;-34
2024/01/23 02:17:16;;;;;;;15.07;3.67;;;5.00;99.90;;;;;;6281817;22;20442;-36
2024/01/23 02:19:42;;;;;;;27.75;4.50;;;5.00;99.90;;;;;;6308927;22;20355;-35
2024/01/23 02:22:08;;;;;;;17.00;2.72;;;5.00;99.90;;;;;;6308987;22;20015;-35
2024/01/23 02:24:34;;;;;;;24.73;3.70;;;4.90;99.90;;;;;;6308592;22;20114;-36
2024/01/23 02:27:00;;;;;;;13.05;4.13;;;5.00;99.90;;;;;;6309669;22;20435;-37
2024/01/23 02:29:26;;;;;;;15.35;2.15;;;5.10;99.90;;;;;;6309581;22;20019;-35
2024/01/23 02:31:51;;;;;;;25.75;3.75;;;5.20;99.90;;;;;;6309205;22;20019;-38
2024/01/23 02:34:17;;;;;;;22.55;3.35;;;5.20;99.90;;;;;;6281496;22;20011;-37
2024/01/23 02:36:44;;;;;;;13.63;2.65;;;5.40;99.90;;;;;;6281436;22;20073;-35
2024/01/23 02:39:10;;;;;;;20.00;3.55;;;5.40;99.90;;;;;;6281384;22;20018;-33
2024/01/23 02:41:35;;;;;;;19.65;3.88;;;5.40;99.90;;;;;;6308348;22;20335;-37
2024/01/23 02:44:01;;;;;;;12.40;3.13;;;5.50;99.90;;;;;;6281602;22;20026;-35
2024/01/23 02:46:27;;;;;;;18.80;4.35;;;5.40;99.90;;;;;;6308875;22;20019;-35
2024/01/23 02:48:52;;;;;;;14.82;3.60;;;5.50;99.90;;;;;;6281304;22;20015;-38
2024/01/23 02:51:21;;;;;;;27.98;5.88;;;5.50;99.90;;;;;;6281290;22;20051;-36
2024/01/23 02:53:47;;;;;;;19.33;4.38;;;5.60;99.90;;;;;;6308586;22;20022;-36
2024/01/23 02:56:13;;;;;;;17.98;3.85;;;5.60;99.90;;;;;;6230568;22;20054;-34
2024/01/23 02:58:40;;;;;;;14.63;3.35;;;5.70;99.90;;;;;;6282152;22;20019;-36
2024/01/23 03:01:06;;;;;;;23.10;4.82;;;5.60;99.90;;;;;;6308183;22;20320;-35
2024/01/23 03:03:31;;;;;;;14.68;3.10;;;5.60;99.90;;;;;;6308567;22;20072;-36
2024/01/23 03:05:57;;;;;;;25.30;3.90;;;5.60;99.90;;;;;;6309579;22;20019;-35
2024/01/23 03:08:23;;;;;;;21.75;3.85;;;5.70;99.90;;;;;;6255752;22;20439;-34
2024/01/23 03:10:49;;;;;;;25.27;4.45;;;5.80;99.90;;;;;;6308516;22;20487;-35
2024/01/23 03:13:15;;;;;;;24.55;5.07;;;5.60;99.90;;;;;;6256644;22;20081;-37
2024/01/23 03:15:41;;;;;;;21.00;4.20;;;5.60;99.90;;;;;;6308491;22;20389;-36
2024/01/23 03:18:07;;;;;;;21.02;3.65;;;5.90;99.90;;;;;;6308510;22;20335;-35
2024/01/23 03:20:33;;;;;;;19.10;3.53;;;5.80;99.90;;;;;;6281221;22;20011;-34
2024/01/23 03:23:00;;;;;;;19.52;3.92;;;6.00;99.90;;;;;;6308657;22;20030;-38
2024/01/23 03:25:26;;;;;;;28.60;4.65;;;6.00;99.90;;;;;;6308352;22;20094;-34
2024/01/23 03:27:52;;;;;;;18.27;3.22;;;5.90;99.90;;;;;;6308303;22;20033;-34
2024/01/23 03:30:31;;;;;;;27.02;4.80;;;5.80;99.90;;;;;;6308232;22;20450;-34
2024/01/23 03:32:58;;;;;;;25.95;3.53;;;5.80;99.90;;;;;;6308329;22;20026;-34
2024/01/23 03:35:24;;;;;;;17.30;4.05;;;5.90;99.90;;;;;;6308243;22;20081;-35
2024/01/23 03:37:51;;;;;;;18.60;3.92;;;6.10;99.90;;;;;;6280937;22;20019;-36
2024/01/23 03:40:17;;;;;;;21.63;5.03;;;6.00;99.90;;;;;;6281122;22;20011;-35
2024/01/23 03:42:43;;;;;;;23.00;3.85;;;6.00;99.90;;;;;;6308846;22;20038;-35
2024/01/23 03:45:09;;;;;;;19.55;3.28;;;6.10;99.90;;;;;;6308200;22;20037;-36
2024/01/23 03:47:35;;;;;;;23.98;4.53;;;6.20;99.90;;;;;;6256373;22;20411;-35
2024/01/23 03:50:02;;;;;;;24.15;4.32;;;6.30;99.90;;;;;;6308614;22;20378;-38
2024/01/23 03:52:28;;;;;;;17.48;4.20;;;6.30;99.90;;;;;;6308231;22;20069;-36
2024/01/23 03:54:54;;;;;;;23.27;5.00;;;6.20;99.90;;;;;;6281147;22;20015;-35
2024/01/23 03:57:20;;;;;;;21.77;4.82;;;6.30;99.90;;;;;;6280409;22;20055;-35
2024/01/23 03:59:46;;;;;;;17.58;4.00;;;6.40;99.90;;;;;;6280760;22;20012;-36
2024/01/23 04:02:12;;;;;;;25.33;4.95;;;6.20;99.90;;;;;;6308085;22;20100;-35
2024/01/23 04:04:41;;;;;;;28.00;5.15;;;6.20;99.90;;;;;;6308725;22;20015;-36
2024/01/23 04:07:07;;;;;;;19.67;4.68;;;6.20;99.90;;;;;;6281842;22;20019;-36
2024/01/23 04:09:33;;;;;;;32.95;5.47;;;6.30;99.90;;;;;;6308080;22;20011;-35
2024/01/23 04:11:58;;;;;;;22.90;3.78;;;6.20;99.90;;;;;;6308044;22;20326;-34
2024/01/23 04:14:24;;;;;;;19.00;4.82;;;6.20;99.90;;;;;;6280746;22;20053;-37
2024/01/23 04:16:50;;;;;;;18.73;4.15;;;6.10;99.90;;;;;;6308054;22;20019;-36
2024/01/23 04:19:15;;;;;;;25.05;4.53;;;6.20;99.90;;;;;;6307950;22;20034;-37
2024/01/23 04:21:41;;;;;;;22.65;4.28;;;6.30;99.90;;;;;;6281459;22;20026;-36
2024/01/23 04:24:07;;;;;;;23.33;5.05;;;6.20;99.90;;;;;;6280800;22;20113;-35
2024/01/23 04:26:33;;;;;;;22.90;5.70;;;6.20;99.90;;;;;;6280622;22;20011;-34
2024/01/23 04:28:58;;;;;;;33.22;5.75;;;6.20;99.90;;;;;;6281448;22;20288;-34
2024/01/23 04:31:25;;;;;;;20.65;4.28;;;6.30;99.90;;;;;;6307929;22;20027;-35
2024/01/23 04:33:52;;;;;;;18.45;4.53;;;6.30;99.90;;;;;;6281006;22;20102;-37
2024/01/23 04:36:17;;;;;;;25.23;5.25;;;6.30;99.90;;;;;;6307943;22;20020;-34
2024/01/23 04:38:43;;;;;;;18.70;4.25;;;6.30;99.90;;;;;;6308540;22;20080;-36
2024/01/23 04:41:09;;;;;;;23.60;5.18;;;6.20;99.90;;;;;;6308293;22;20046;-35
2024/01/23 04:43:36;;;;;;;26.30;4.70;;;6.30;99.90;;;;;;6280869;22;20019;-35
2024/01/23 04:46:01;;;;;;;30.92;5.57;;;6.20;99.90;;;;;;6307482;22;20469;-36
2024/01/23 04:48:27;;;;;;;29.58;4.80;;;6.30;99.90;;;;;;6307942;22;20020;-37
2024/01/23 04:50:53;;;;;;;23.00;4.72;;;6.30;99.90;;;;;;6280903;22;20568;-35
2024/01/23 04:53:19;;;;;;;20.05;4.85;;;6.10;99.90;;;;;;6280747;22;20514;-38
2024/01/23 04:55:44;;;;;;;26.50;5.38;;;6.30;99.90;;;;;;6307529;22;20069;-36
2024/01/23 04:58:10;;;;;;;22.63;5.63;;;6.30;99.90;;;;;;6308196;22;20054;-35
2024/01/23 05:00:36;;;;;;;33.05;5.97;;;6.40;99.90;;;;;;6307745;22;20345;-35
2024/01/23 05:03:01;;;;;;;24.55;4.97;;;6.20;99.90;;;;;;6307765;22;20076;-35
2024/01/23 05:05:28;;;;;;;22.30;4.45;;;6.20;99.90;;;;;;6307755;22;20330;-37
2024/01/23 05:07:54;;;;;;;22.35;5.05;;;6.20;99.90;;;;;;6281469;22;20021;-35
2024/01/23 05:10:19;;;;;;;22.13;4.22;;;6.30;99.90;;;;;;6308894;22;20051;-35
2024/01/23 05:12:45;;;;;;;29.02;5.72;;;6.10;99.90;;;;;;6282414;22;20023;-35
2024/01/23 05:15:11;;;;;;;26.80;5.80;;;6.00;99.90;;;;;;6282402;22;20019;-34
2024/01/23 05:17:37;;;;;;;20.00;4.85;;;6.00;99.90;;;;;;6309601;22;20061;-38
2024/01/23 05:20:06;;;;;;;19.20;4.20;;;5.70;99.90;;;;;;6282152;22;20022;-34
2024/01/23 05:22:32;;;;;;;28.52;5.28;;;5.60;99.90;;;;;;6281844;22;20027;-36
2024/01/23 05:24:57;;;;;;;16.63;4.70;;;5.60;99.90;;;;;;6309483;22;20020;-37
2024/01/23 05:27:23;;;;;;;24.70;5.00;;;5.50;99.90;;;;;;6309487;22;20091;-38
2024/01/23 05:29:49;;;;;;;27.63;5.28;;;5.70;99.90;;;;;;6309390;22;20450;-35
2024/01/23 05:32:14;;;;;;;35.35;5.82;;;5.60;99.90;;;;;;6282014;22;20023;-36
2024/01/23 05:34:40;;;;;;;34.10;7.97;;;5.60;99.90;;;;;;6282147;22;20051;-35
2024/01/23 05:37:06;;;;;;;22.35;4.65;;;5.60;99.90;;;;;;6256538;22;20093;-35
2024/01/23 05:39:38;;;;;;;23.13;3.97;;;5.60;99.90;;;;;;6282702;22;20011;-35
2024/01/23 05:42:05;;;;;;;32.30;6.03;;;5.50;99.90;;;;;;6281716;22;20481;-34
2024/01/23 05:44:32;;;;;;;27.42;4.50;;;5.60;99.90;;;;;;6309288;22;20321;-34
2024/01/23 05:46:58;;;;;;;23.17;4.90;;;5.50;99.90;;;;;;6282353;22;20019;-36
2024/01/23 05:49:24;;;;;;;32.08;6.38;;;5.50;99.90;;;;;;6309274;22;20068;-36
2024/01/23 05:51:50;;;;;;;34.30;7.03;;;5.50;99.90;;;;;;6309216;22;20466;-37
2024/01/23 05:54:15;;;;;;;40.70;6.32;;;5.50;99.90;;;;;;6281755;22;20019;-36
2024/01/23 05:56:41;;;;;;;24.10;4.90;;;5.50;99.90;;;;;;6263322;22;20024;-34
2024/01/23 05:59:07;;;;;;;32.78;5.68;;;5.50;99.90;;;;;;6246073;23;20332;-37
2024/01/23 06:01:33;;;;;;;31.30;5.60;;;5.40;99.90;;;;;;6247549;23;20020;-35
2024/01/23 06:03:59;;;;;;;23.83;5.07;;;5.50;99.90;;;;;;6246960;23;20078;-35
2024/01/23 06:06:26;;;;;;;36.55;7.18;;;5.40;99.90;;;;;;6248516;23;20012;-35
2024/01/23 06:08:52;;;;;;;25.08;5.47;;;5.40;99.90;;;;;;6247490;23;20020;-36
2024/01/23 06:11:17;;;;;;;40.83;7.72;;;5.30;99.90;;;;;;6247496;23;20039;-34
2024/01/23 06:13:43;;;;;;;23.08;5.00;;;5.30;99.90;;;;;;6247422;23;20399;-36
2024/01/23 06:16:10;;;;;;;24.77;5.00;;;5.30;99.90;;;;;;6245956;23;20024;-36
2024/01/23 06:18:35;;;;;;;29.58;6.00;;;5.40;99.90;;;;;;6247786;23;20016;-37
2024/01/23 06:21:02;;;;;;;27.95;5.18;;;5.40;99.90;;;;;;6220454;23;20099;-36
2024/01/23 06:23:28;;;;;;;24.52;4.45;;;5.40;99.90;;;;;;6245939;23;20012;-35
2024/01/23 06:25:54;;;;;;;23.63;5.15;;;5.40;99.90;;;;;;6245836;23;20099;-36
2024/01/23 06:28:20;;;;;;;29.02;6.10;;;5.40;99.90;;;;;;6247306;23;20075;-36
2024/01/23 06:30:45;;;;;;;28.60;5.78;;;5.20;99.90;;;;;;6247213;23;20323;-36
2024/01/23 06:33:12;;;;;;;32.67;5.20;;;5.20;99.90;;;;;;6245762;23;20048;-35
2024/01/23 06:35:38;;;;;;;39.80;7.30;;;5.20;99.90;;;;;;6246104;23;20071;-34
2024/01/23 06:38:04;;;;;;;35.83;5.47;;;5.20;99.90;;;;;;6220554;23;20039;-35
2024/01/23 06:40:29;;;;;;;33.97;5.38;;;5.30;99.90;;;;;;6220336;23;20024;-36
2024/01/23 06:42:55;;;;;;;29.67;5.13;;;5.20;99.90;;;;;;6247154;23;20096;-35
2024/01/23 06:45:21;;;;;;;25.00;5.63;;;5.10;99.90;;;;;;6245918;23;20012;-35
2024/01/23 06:47:46;;;;;;;28.48;5.40;;;5.10;99.90;;;;;;6247484;23;20024;-35
2024/01/23 06:50:12;;;;;;;37.78;6.32;;;5.10;99.90;;;;;;6195235;23;20047;-35
2024/01/23 06:52:38;;;;;;;25.60;4.95;;;5.20;99.90;;;;;;6220314;23;20112;-38
2024/01/23 06:55:04;;;;;;;33.47;5.75;;;5.00;99.90;;;;;;6247133;23;20016;-35
2024/01/23 06:57:30;;;;;;;28.88;5.22;;;5.20;99.90;;;;;;6294589;22;20027;-36
2024/01/23 06:59:55;;;;;;;34.75;6.28;;;5.10;99.90;;;;;;6281164;22;20427;-35
2024/01/23 07:02:21;;;;;;;36.70;7.50;;;5.00;99.90;;;;;;6281638;22;20023;-37
2024/01/23 07:04:47;;;;;;;38.08;5.53;;;5.10;99.90;;;;;;6309615;22;20288;-34
2024/01/23 07:07:12;;;;;;;31.95;6.63;;;4.90;99.90;;;;;;6308755;22;20102;-35
2024/01/23 07:09:38;;;;;;;42.90;6.82;;;5.00;99.90;;;;;;6308508;22;20015;-35
2024/01/23 07:12:04;;;;;;;36.45;6.90;;;5.00;99.90;;;;;;6281661;22;20019;-35
2024/01/23 07:14:30;;;;;;;24.92;6.15;;;4.90;99.90;;;;;;6309077;22;20015;-39
2024/01/23 07:16:56;;;;;;;42.05;7.05;;;4.90;99.90;;;;;;6308723;22;20023;-35
2024/01/23 07:19:22;;;;;;;28.67;5.47;;;4.90;99.90;;;;;;6308325;22;20015;-36
2024/01/23 07:21:48;;;;;;;24.67;5.15;;;4.90;99.90;;;;;;6308468;22;20508;-36
2024/01/23 07:24:13;;;;;;;41.00;5.93;;;5.00;99.90;;;;;;6282108;22;20016;-38
2024/01/23 07:26:39;;;;;;;27.50;5.00;;;4.90;99.90;;;;;;6308981;22;20102;-38
2024/01/23 07:29:05;;;;;;;39.55;6.70;;;4.90;99.90;;;;;;6308289;22;20015;-36
2024/01/23 07:31:31;;;;;;;33.45;6.38;;;4.90;99.90;;;;;;6308156;22;20019;-37
2024/01/23 07:33:57;;;;;;;30.30;4.97;;;4.90;99.90;;;;;;6308728;22;20019;-40
2024/01/23 07:36:23;;;;;;;29.35;5.95;;;4.90;99.90;;;;;;6308945;22;20023;-36
2024/01/23 07:38:49;;;;;;;34.67;5.20;;;5.00;99.90;;;;;;6307680;22;20450;-36
2024/01/23 07:41:16;;;;;;;33.92;6.65;;;5.00;99.90;;;;;;6281075;22;20026;-37
2024/01/23 07:43:42;;;;;;;45.75;7.40;;;5.00;99.90;;;;;;6281182;22;20026;-36
2024/01/23 07:46:07;;;;;;;50.47;6.50;;;5.00;99.90;;;;;;6280782;22;20015;-35
2024/01/23 07:48:33;;;;;;;31.23;5.53;;;4.90;99.90;;;;;;6308198;22;20098;-36
2024/01/23 07:50:59;;;;;;;31.38;6.07;;;4.90;99.90;;;;;;6280942;22;20072;-38
2024/01/23 07:53:24;;;;;;;31.45;6.63;;;4.80;99.90;;;;;;6308166;22;20019;-38
2024/01/23 07:55:52;;;;;;;34.70;6.55;;;4.80;99.90;;;;;;6280541;22;20019;-36
2024/01/23 07:58:18;;;;;;;32.10;5.32;;;4.80;99.90;;;;;;6280876;22;20026;-36
2024/01/23 08:00:44;;;;;;;28.88;4.80;;;5.00;99.90;;;;;;6281691;22;20015;-38
2024/01/23 08:03:09;;;;;;;29.40;4.53;;;4.90;99.90;;;;;;6309091;22;20019;-35
2024/01/23 08:05:35;;;;;;;29.27;6.90;;;4.90;99.90;;;;;;6308790;22;20296;-35
2024/01/23 08:08:01;;;;;;;34.58;5.65;;;4.90;99.90;;;;;;6308744;22;20120;-35
2024/01/23 08:10:29;;;;;;;23.02;4.72;;;4.90;99.90;;;;;;6308077;22;20011;-38
2024/01/23 08:12:56;;;;;;;29.95;5.47;;;5.10;99.90;;;;;;6308032;22;20020;-40
2024/01/23 08:15:23;;;;;;;39.92;8.73;;;5.10;99.90;;;;;;6281030;22;20019;-37
2024/01/23 08:17:49;;;;;;;33.40;6.40;;;5.00;99.90;;;;;;6280913;22;20458;-36
2024/01/23 08:20:15;;;;;;;31.40;6.50;;;5.00;99.90;;;;;;6308593;22;20023;-38
2024/01/23 08:22:41;;;;;;;43.75;6.78;;;5.00;99.90;;;;;;6280727;22;20015;-38
2024/01/23 08:25:08;;;;;;;43.83;5.65;;;4.90;99.90;;;;;;6308004;22;20034;-35
2024/01/23 08:27:37;;;;;;;23.88;5.13;;;4.90;99.90;;;;;;6280656;22;20022;-36
2024/01/23 08:30:03;;;;;;;40.78;6.68;;;4.90;99.90;;;;;;6307951;22;20023;-37
2024/01/23 08:32:28;;;;;;;32.90;6.15;;;4.70;99.90;;;;;;6308017;22;20016;-38
2024/01/23 08:34:54;;;;;;;26.63;4.85;;;4.70;99.90;;;;;;6307970;22;20327;-39
2024/01/23 08:37:20;;;;;;;33.47;7.00;;;4.80;99.90;;;;;;6307914;22;20069;-35
2024/01/23 08:39:45;;;;;;;33.30;5.35;;;4.70;99.90;;;;;;6281100;22;20018;-37
2024/01/23 08:42:11;;;;;;;33.47;5.55;;;4.70;99.90;;;;;;6281564;22;20019;-36
2024/01/23 08:44:37;;;;;;;28.60;5.25;;;4.70;99.90;;;;;;6308548;22;20120;-35
2024/01/23 08:47:03;;;;;;;29.73;5.40;;;4.80;99.90;;;;;;6282655;22;20019;-38
2024/01/23 08:49:29;;;;;;;35.60;5.55;;;4.90;99.90;;;;;;6309880;22;20120;-36
2024/01/23 08:51:55;;;;;;;30.48;4.85;;;4.90;99.90;;;;;;6309733;22;20065;-37
2024/01/23 08:54:21;;;;;;;36.97;6.15;;;4.90;99.90;;;;;;6257710;22;20019;-35
2024/01/23 08:56:47;;;;;;;47.15;8.02;;;4.80;99.90;;;;;;6309844;22;20008;-35
2024/01/23 08:59:14;;;;;;;49.42;6.43;;;4.90;99.90;;;;;;6309747;22;20093;-35
2024/01/23 09:01:40;;;;;;;28.25;6.05;;;4.80;99.90;;;;;;6310457;22;20019;-35
2024/01/23 09:04:06;;;;;;;32.45;6.63;;;4.90;99.90;;;;;;6309631;22;20462;-36
2024/01/23 09:06:31;;;;;;;31.52;6.03;;;5.00;99.90;;;;;;6310717;22;20018;-37
2024/01/23 09:08:57;;;;;;;31.02;6.22;;;5.00;99.90;;;;;;6283370;22;20293;-36
2024/01/23 09:11:23;;;;;;;40.40;6.28;;;5.10;99.90;;;;;;6309569;22;20094;-36
2024/01/23 09:13:48;;;;;;;33.15;6.00;;;5.00;99.90;;;;;;6282687;22;20019;-37
2024/01/23 09:16:14;;;;;;;31.23;4.72;;;5.10;99.90;;;;;;6310259;22;20042;-39
2024/01/23 09:18:42;;;;;;;41.17;8.25;;;5.10;99.90;;;;;;6282467;22;20090;-37
2024/01/23 09:21:08;;;;;;;47.30;7.20;;;5.20;99.90;;;;;;6309506;22;20022;-35
2024/01/23 09:23:37;;;;;;;38.28;6.00;;;5.20;99.90;;;;;;6282696;22;20114;-36
2024/01/23 09:26:03;;;;;;;42.05;6.35;;;5.40;99.90;;;;;;6309500;22;20022;-35
2024/01/23 09:28:29;;;;;;;50.70;7.60;;;5.30;99.90;;;;;;6257043;22;20023;-35
2024/01/23 09:30:55;;;;;;;28.05;5.35;;;5.40;99.90;;;;;;6310168;22;20446;-35
2024/01/23 09:33:20;;;;;;;29.83;5.65;;;5.40;99.90;;;;;;6309415;22;20015;-34
2024/01/23 09:35:46;;;;;;;29.20;5.35;;;5.40;99.90;;;;;;6282869;22;20015;-35
2024/01/23 09:38:12;;;;;;;47.33;7.28;;;5.50;99.90;;;;;;6282713;22;20019;-35
2024/01/23 09:40:38;;;;;;;24.33;5.10;;;5.50;99.90;;;;;;6309628;22;20065;-34
2024/01/23 09:43:04;;;;;;;28.88;5.40;;;5.60;99.90;;;;;;6282265;22;20026;-35
2024/01/23 09:45:33;;;;;;;28.40;5.15;;;5.70;99.90;;;;;;6309716;22;20019;-36
2024/01/23 09:47:59;;;;;;;25.52;5.95;;;5.70;99.90;;;;;;6282412;22;20019;-35
2024/01/23 09:50:26;;;;;;;38.40;6.50;;;6.00;99.90;;;;;;6310160;22;20371;-36
2024/01/23 09:52:52;;;;;;;37.85;6.53;;;6.00;99.90;;;;;;6281908;22;20444;-36
2024/01/23 09:55:18;;;;;;;35.40;4.97;;;5.80;99.90;;;;;;6309428;22;20015;-35
2024/01/23 09:57:45;;;;;;;35.55;6.47;;;5.80;99.90;;;;;;6309625;22;20015;-34
2024/01/23 10:00:12;;;;;;;32.28;5.22;;;5.80;99.90;;;;;;6309073;22;20022;-36
2024/01/23 10:02:42;;;;;;;42.05;6.85;;;5.70;99.90;;;;;;6282119;22;20064;-34
2024/01/23 10:05:12;;;;;;;20.73;5.32;;;5.80;99.90;;;;;;6310140;22;20026;-35
2024/01/23 10:07:39;;;;;;;33.40;5.07;;;5.90;99.90;;;;;;6282822;22;20016;-36
2024/01/23 10:10:14;;;;;;;42.08;7.20;;;6.00;99.90;;;;;;6281851;22;20090;-34
2024/01/23 10:12:44;;;;;;;35.63;7.47;;;6.10;99.90;;;;;;6309141;22;20098;-40
2024/01/23 10:15:13;;;;;;;35.30;7.10;;;6.10;99.90;;;;;;6282747;22;20431;-37
2024/01/23 10:17:39;;;;;;;44.47;6.55;;;6.20;99.90;;;;;;6281296;22;20015;-36
2024/01/23 10:20:05;;;;;;;32.15;5.97;;;6.30;99.90;;;;;;6308943;22;20011;-35
2024/01/23 10:22:35;;;;;;;50.20;7.13;;;6.30;99.90;;;;;;6282315;22;20058;-36
2024/01/23 10:25:13;;;;;;;22.30;5.07;;;6.40;99.90;;;;;;6308933;22;20015;-35
2024/01/23 10:27:39;;;;;;;29.98;5.05;;;6.40;99.90;;;;;;6309046;22;20496;-35
2024/01/23 10:30:06;;;;;;;36.20;5.28;;;6.40;99.90;;;;;;6308506;22;20051;-36
2024/01/23 10:32:32;;;;;;;43.15;5.95;;;6.50;99.90;;;;;;6230642;22;20019;-39
2024/01/23 10:34:58;;;;;;;43.03;7.10;;;6.50;99.90;;;;;;6308835;22;20076;-34
2024/01/23 10:37:24;;;;;;;35.90;6.07;;;6.50;99.90;;;;;;6308940;22;20019;-35
2024/01/23 10:39:51;;;;;;;25.10;5.20;;;6.60;99.90;;;;;;6308365;22;20098;-34
2024/01/23 10:42:18;;;;;;;24.38;5.15;;;6.50;99.90;;;;;;6308829;22;20462;-35
2024/01/23 10:44:50;;;;;;;49.70;7.25;;;6.70;99.90;;;;;;6281426;22;20026;-35
2024/01/23 10:47:19;;;;;;;38.75;7.60;;;6.70;99.90;;;;;;6282420;22;20051;-36
2024/01/23 10:49:46;;;;;;;26.50;5.15;;;6.80;99.90;;;;;;6282461;22;20111;-36
2024/01/23 10:52:18;;;;;;;35.97;6.70;;;6.70;99.90;;;;;;6308682;22;20011;-34
2024/01/23 10:54:52;;;;;;;35.92;5.95;;;6.70;99.90;;;;;;6308641;22;20068;-35
2024/01/23 10:57:22;;;;;;;51.35;6.82;;;6.70;99.90;;;;;;6308845;22;20074;-35
2024/01/23 10:59:48;;;;;;;31.52;5.43;;;6.90;99.90;;;;;;6308564;22;20386;-36
2024/01/23 11:02:38;;;;;;;39.20;7.40;;;7.00;99.90;;;;;;6308499;22;20105;-36
2024/01/23 11:05:05;;;;;;;46.95;7.50;;;7.10;99.90;;;;;;6282296;22;20096;-35
2024/01/23 11:08:01;;;;;;;42.97;6.43;;;7.10;99.90;;;;;;6255243;22;20019;-34
2024/01/23 11:10:48;;;;;;;35.78;5.53;;;7.00;99.90;;;;;;6304204;22;20285;-38
2024/01/23 11:13:28;;;;;;;23.83;5.25;;;7.00;99.90;;;;;;6308483;22;20019;-35
2024/01/23 11:15:53;;;;;;;34.47;6.32;;;7.00;99.90;;;;;;6308567;22;20019;-35
2024/01/23 11:18:28;;;;;;;31.23;5.13;;;7.10;99.90;;;;;;6308285;22;20080;-38
2024/01/23 11:21:09;;;;;;;37.25;5.28;;;7.10;99.90;;;;;;6308731;22;20015;-35
2024/01/23 11:23:37;;;;;;;50.10;6.95;;;7.10;99.90;;;;;;6308707;22;20072;-35
2024/01/23 11:26:12;;;;;;;37.38;6.05;;;7.30;99.90;;;;;;6308276;22;20435;-35
2024/01/23 11:28:38;;;;;;;31.48;5.90;;;7.20;99.90;;;;;;6308756;22;20019;-34
2024/01/23 11:31:08;;;;;;;39.10;6.97;;;7.20;99.90;;;;;;6280607;22;20105;-35
2024/01/23 11:33:35;;;;;;;28.33;6.45;;;7.20;99.90;;;;;;6308388;22;20058;-34
2024/01/23 11:36:11;;;;;;;37.95;6.30;;;7.10;99.90;;;;;;6308236;22;20015;-35
2024/01/23 11:38:48;;;;;;;27.05;5.75;;;7.10;99.90;;;;;;6309045;22;20102;-36
2024/01/23 11:41:24;;;;;;;36.70;5.38;;;7.10;99.90;;;;;;6309196;22;20276;-35
2024/01/23 11:44:04;;;;;;;25.00;4.90;;;7.10;99.90;;;;;;6308273;22;20019;-35
2024/01/23 11:46:33;;;;;;;29.92;6.05;;;7.10;99.90;;;;;;6308296;22;20414;-35
2024/01/23 11:48:59;;;;;;;50.97;6.40;;;7.10;99.90;;;;;;6308732;22;20019;-35
2024/01/23 11:51:28;;;;;;;38.90;6.60;;;7.20;99.90;;;;;;6255272;22;20011;-35
2024/01/23 11:53:58;;;;;;;22.90;5.30;;;7.20;99.90;;;;;;6308121;22;20141;-36
2024/01/23 11:56:27;;;;;;;27.15;5.47;;;7.20;99.90;;;;;;6281599;22;20076;-37
2024/01/23 11:58:55;;;;;;;28.40;4.50;;;7.10;99.90;;;;;;6280857;22;20015;-36
2024/01/23 12:01:23;;;;;;;25.95;5.53;;;7.10;99.90;;;;;;6255759;22;20098;-36
2024/01/23 12:03:49;;;;;;;32.38;5.43;;;7.10;99.90;;;;;;6308118;22;20051;-35
2024/01/23 12:06:16;;;;;;;37.53;7.60;;;7.20;99.90;;;;;;6308725;22;20030;-36
2024/01/23 12:08:43;;;;;;;26.88;6.10;;;7.30;99.90;;;;;;6308115;22;20012;-36
2024/01/23 12:11:09;;;;;;;36.38;5.90;;;7.40;99.90;;;;;;6308097;22;20041;-36
2024/01/23 12:13:36;;;;;;;23.05;4.55;;;7.40;99.90;;;;;;6280747;22;20015;-36
2024/01/23 12:16:02;;;;;;;30.55;4.78;;;7.30;99.90;;;;;;6307991;22;20015;-36
2024/01/23 12:18:28;;;;;;;29.60;4.68;;;7.20;99.90;;;;;;6281272;22;20015;-38
2024/01/23 12:20:56;;;;;;;33.90;6.07;;;7.10;99.90;;;;;;6282636;22;20015;-37
2024/01/23 12:23:24;;;;;;;32.40;4.88;;;7.10;99.90;;;;;;6310800;22;20019;-36
2024/01/23 12:25:49;;;;;;;30.23;4.95;;;7.20;99.90;;;;;;6310216;22;20026;-37
2024/01/23 12:28:17;;;;;;;32.83;5.25;;;7.20;99.90;;;;;;6283136;22;20015;-36
2024/01/23 12:30:47;;;;;;;28.50;5.68;;;7.30;99.90;;;;;;6282759;22;20431;-36
2024/01/23 12:33:17;;;;;;;41.83;7.30;;;7.30;99.90;;;;;;6257129;22;20019;-36
2024/01/23 12:35:47;;;;;;;28.08;5.43;;;7.20;99.90;;;;;;6309963;22;20098;-37
2024/01/23 12:38:20;;;;;;;24.27;5.18;;;7.20;99.90;;;;;;6310743;22;20019;-37
2024/01/23 12:40:47;;;;;;;41.95;6.05;;;7.30;99.90;;;;;;6282969;22;20049;-38
2024/01/23 12:43:14;;;;;;;31.67;6.00;;;7.30;99.90;;;;;;6310619;22;20026;-37
2024/01/23 12:45:40;;;;;;;41.75;6.28;;;7.50;99.90;;;;;;6309550;22;20560;-36